Terminal Aerodrome Forecast
Issued by NWS

Home | Current Version | Previous Version | Text Only | Print | Product List | Glossary On
Versions: 1 2 3 4 5 6 7 8 9 10 11 12 13 14 15 16 17 18 19 20 21 22 23 24
131
FTPQ31 PGUM 222322
TAFGUM
TAF

TAF
PTKK 222322Z 2300/2324 07011KT P6SM VCTS FEW014CB BKN120
      TEMPO 2300/2304 5SM SHRA SCT014 BKN030 OVC120
     FM230400 07011KT P6SM VCSH FEW014 BKN120=

USA.gov is the U.S. government's official web portal to all federal, state and local government web resources and services.